Aeroporto :
LOGIN :

Iscrizione | Disclaimer

   EN    FR    IT 

 










Sommario :    VFR   VFR Marginale   IFR   IFR Intensivo   IFR Molto Intensivo
Visibilità : 
Base nubi : 
>= 8 km
>= 3000ft
5 / 8 km
1000 / 3000 ft
1500m / 5 km
500 / 1000 ft
800 / 1500m
200 / 500 ft
< 800m
< 200 ft
Simboli :   Temporali  Nebbia  Neve Forte  Precipitazioni Forti  Vento > 20 kt
SIGMETs :   Varie  Temporali  Ghiacco  Turbolenza  Onda orograficha  Ceneri Vulcaniche






- Altitudine del aeroporto : 17 ft
- Codice IATA : GRQ


EHGG - Groningen Eelde

ULTIMO METAR :
  • 080325Z AUTO 16013KT 130V200 6000 -RA SCT009 BKN010 OVC013 04/02 Q0991

METARs OBSOLETI :
  • 080255Z AUTO 16015KT 120V190 9999 SCT008 BKN010 BKN012 03/02 Q0991 REDZ
  • 080225Z AUTO 15016G26KT 120V180 7000 -DZ FEW008 BKN010 BKN013 04/02 Q0991
  • 080155Z AUTO 15015G25KT 100V190 9999 -RA FEW010 BKN013 OVC015 03/02 Q0992 REDZRA
  • 080125Z AUTO 14014KT 080V180 9999 -DZ FEW012 SCT014 BKN016 03/02 Q0992

TAF AMD TAF EHGG
Valido dal 08 a 02 ore il 09 a 06 ore UTC


080227Z 0802/0906 15016G26KT 9999 BKN012
TEMPO 0802/0807 6000 RADZ BKN006
BECMG 0806/0809 17014KT SCT025
PROB30 0903/0906 4000 BR BKN004



MetMap, La meteo Aeronautica in un colpo d'occhio ! - Copyright ORBIFLY Dicembre 2007 - Disclaimer

ORBIFLY MET'MAP TEAM :

Programmazione e sviluppo : Alexandra Zaïnal
Concezione : Baudouin d'Aumeries
Aiuto per la programmazione : Marc-Olivier Méhu
Supporto tecnico e logistico : Manuel Goepfert
Aiuto per la traduzione : Arnaldo La Scala

Contatto : metmap@orbifly.com




FONTI E CREDITI :

   NOAA